Time;durP1;ratioP1;P1;durP2;ratioP2;P2;SDS_P1;SDS_P2;PMS_P1;PMS_P2;Temp;Humidity;BMP_temperature;BMP_pressure;BME280_temperature;BME280_humidity;BME280_pressure;Samples;Min_cycle;Max_cycle;Signal;HPM_P1;HPM_P2
2022/11/12 00:00:31;;;;;;;23.85;19.90;;;8.30;99.90;;;;;;5062026;28;20048;-91
2022/11/12 00:02:57;;;;;;;24.30;15.88;;;8.30;99.90;;;;;;5057193;28;20653;-91
2022/11/12 00:05:23;;;;;;;18.83;14.73;;;8.20;99.90;;;;;;5060267;28;20037;-92
2022/11/12 00:07:48;;;;;;;15.52;12.82;;;8.20;99.90;;;;;;5048897;28;20428;-92
2022/11/12 00:10:15;;;;;;;14.45;11.25;;;8.20;99.90;;;;;;5073888;28;20045;-92
2022/11/12 00:12:41;;;;;;;15.40;11.55;;;8.20;99.90;;;;;;5063707;28;20707;-90
2022/11/12 00:15:07;;;;;;;16.27;11.32;;;8.10;99.90;;;;;;5065609;28;20036;-92
2022/11/12 00:17:32;;;;;;;13.40;10.45;;;8.10;99.90;;;;;;5050271;28;20096;-90
2022/11/12 00:19:58;;;;;;;13.73;9.98;;;8.10;99.90;;;;;;5049752;28;20079;-91
2022/11/12 00:22:24;;;;;;;16.42;9.50;;;8.00;99.90;;;;;;5073791;28;20048;-91
2022/11/12 00:24:49;;;;;;;14.57;9.80;;;8.00;99.90;;;;;;5056346;28;20116;-92
2022/11/12 00:27:15;;;;;;;14.02;9.05;;;8.00;99.90;;;;;;5055643;28;20040;-92
2022/11/12 00:29:41;;;;;;;12.68;8.88;;;8.00;99.90;;;;;;5070180;28;20075;-91
2022/11/12 00:32:08;;;;;;;17.70;9.65;;;8.00;99.90;;;;;;5051327;28;20086;-90
2022/11/12 00:34:33;;;;;;;15.40;9.75;;;8.00;99.90;;;;;;5059723;28;20037;-91
2022/11/12 00:37:00;;;;;;;17.45;9.70;;;8.00;99.90;;;;;;5052578;28;20036;-91
2022/11/12 00:39:25;;;;;;;13.43;8.38;;;8.00;99.90;;;;;;5066534;28;20048;-91
2022/11/12 00:41:51;;;;;;;14.43;9.15;;;8.00;99.90;;;;;;5052594;28;20416;-92
2022/11/12 00:44:17;;;;;;;22.55;8.93;;;7.90;99.90;;;;;;5099364;27;20036;-91
2022/11/12 00:46:43;;;;;;;16.58;8.50;;;7.90;99.90;;;;;;5064408;28;20045;-85
2022/11/12 00:49:09;;;;;;;26.67;10.35;;;7.90;99.90;;;;;;5057103;28;20037;-91
2022/11/12 00:51:35;;;;;;;16.27;8.95;;;7.90;99.90;;;;;;5070936;28;20074;-91
2022/11/12 00:54:01;;;;;;;14.05;8.75;;;7.90;99.90;;;;;;5065195;28;20052;-91
2022/11/12 00:56:26;;;;;;;14.90;9.40;;;7.90;99.90;;;;;;5050161;28;20045;-90
2022/11/12 00:58:52;;;;;;;16.33;9.13;;;7.90;99.90;;;;;;5047655;28;20040;-91
2022/11/12 01:01:18;;;;;;;15.98;9.25;;;7.80;99.90;;;;;;5059356;28;20051;-91
2022/11/12 01:03:44;;;;;;;15.48;8.75;;;7.90;99.90;;;;;;5053796;28;20068;-91
2022/11/12 01:06:13;;;;;;;13.88;8.48;;;7.90;99.90;;;;;;5060740;28;20179;-91
2022/11/12 01:08:40;;;;;;;14.35;9.45;;;7.90;99.90;;;;;;5057828;28;20204;-91
2022/11/12 01:11:17;;;;;;;12.60;8.15;;;7.80;99.90;;;;;;5074579;28;20059;-91
2022/11/12 01:13:45;;;;;;;12.70;8.35;;;7.80;99.90;;;;;;5064199;28;20115;-90
2022/11/12 01:16:15;;;;;;;13.88;8.27;;;7.80;99.90;;;;;;5051951;28;20044;-91
2022/11/12 01:18:42;;;;;;;13.18;8.23;;;7.70;99.90;;;;;;5055231;28;20067;-91
2022/11/12 01:21:08;;;;;;;11.85;7.60;;;7.70;99.90;;;;;;5067319;28;20198;-91
2022/11/12 01:23:36;;;;;;;14.02;8.43;;;7.70;99.90;;;;;;5057807;28;20053;-91
2022/11/12 01:26:17;;;;;;;13.38;8.07;;;7.60;99.90;;;;;;5058049;28;20082;-90
2022/11/12 01:28:43;;;;;;;13.27;7.60;;;7.50;99.90;;;;;;5053888;28;20116;-91
2022/11/12 01:31:19;;;;;;;14.88;7.93;;;7.50;99.90;;;;;;5059336;28;20140;-91
2022/11/12 01:33:47;;;;;;;12.02;7.90;;;7.40;99.90;;;;;;5052792;28;20036;-90
2022/11/12 01:36:16;;;;;;;12.73;8.30;;;7.50;99.90;;;;;;5065596;28;20449;-91
2022/11/12 01:38:43;;;;;;;10.90;7.45;;;7.40;99.90;;;;;;5049484;28;21898;-91
2022/11/12 01:41:18;;;;;;;9.93;6.80;;;7.40;99.90;;;;;;5056516;28;20048;-91
2022/11/12 01:43:44;;;;;;;9.77;6.70;;;7.30;99.90;;;;;;5051852;28;20041;-91
2022/11/12 01:46:21;;;;;;;12.23;7.13;;;7.20;99.90;;;;;;5048579;28;20085;-91
2022/11/12 01:48:52;;;;;;;11.23;7.30;;;7.10;99.90;;;;;;5056673;28;20044;-91
2022/11/12 01:51:21;;;;;;;10.35;6.93;;;7.00;99.90;;;;;;5052305;28;20037;-90
2022/11/12 01:53:50;;;;;;;10.30;6.57;;;7.00;99.90;;;;;;5054097;28;20127;-90
2022/11/12 01:56:16;;;;;;;8.68;6.10;;;6.90;99.90;;;;;;5060490;28;20051;-90
2022/11/12 01:58:45;;;;;;;13.55;6.90;;;6.80;99.90;;;;;;5053640;28;20052;-90
2022/11/12 02:01:11;;;;;;;8.82;6.60;;;6.70;99.90;;;;;;5046212;28;20052;-90
2022/11/12 02:03:36;;;;;;;9.50;5.88;;;6.70;99.90;;;;;;5057966;28;20535;-91
2022/11/12 02:06:07;;;;;;;9.70;6.38;;;6.70;99.90;;;;;;5075560;28;20040;-91
2022/11/12 02:08:34;;;;;;;10.68;6.30;;;6.60;99.90;;;;;;5066473;28;20040;-91
2022/11/12 02:11:13;;;;;;;8.60;6.55;;;6.60;99.90;;;;;;5058025;28;20403;-91
2022/11/12 02:13:57;;;;;;;8.88;5.45;;;6.50;99.90;;;;;;5072692;28;20443;-91
2022/11/12 02:16:27;;;;;;;7.85;5.72;;;6.50;99.90;;;;;;5089470;28;20088;-88
2022/11/12 02:18:52;;;;;;;7.50;5.60;;;6.50;99.90;;;;;;5066200;28;20131;-90
2022/11/12 02:21:22;;;;;;;9.30;5.55;;;6.40;99.90;;;;;;5057944;28;20418;-91
2022/11/12 02:24:19;;;;;;;8.98;6.05;;;6.40;99.90;;;;;;5073154;28;20048;-90
2022/11/12 02:26:51;;;;;;;11.68;6.35;;;6.30;99.90;;;;;;5045545;28;20099;-91
2022/11/12 02:29:17;;;;;;;9.75;5.95;;;6.30;99.90;;;;;;5059281;28;20048;-91
2022/11/12 02:31:42;;;;;;;7.88;5.60;;;6.30;99.90;;;;;;5067782;28;20456;-91
2022/11/12 02:34:08;;;;;;;11.27;6.28;;;6.30;99.90;;;;;;5056790;28;20090;-91
2022/11/12 02:36:34;;;;;;;13.77;6.65;;;6.30;99.90;;;;;;5061890;28;20068;-91
2022/11/12 02:38:59;;;;;;;10.68;6.70;;;6.30;99.90;;;;;;5053417;28;20491;-90
2022/11/12 02:41:25;;;;;;;11.77;6.78;;;6.40;99.90;;;;;;5073231;28;20048;-91
2022/11/12 02:43:51;;;;;;;12.95;7.22;;;6.40;99.90;;;;;;5050541;28;20090;-91
2022/11/12 02:46:16;;;;;;;12.48;7.43;;;6.40;99.90;;;;;;5062508;28;20044;-90
2022/11/12 02:48:43;;;;;;;13.57;7.47;;;6.40;99.90;;;;;;5058867;28;20502;-91
2022/11/12 02:51:08;;;;;;;13.95;7.85;;;6.50;99.90;;;;;;5052893;28;20136;-91
2022/11/12 02:53:34;;;;;;;12.18;7.90;;;6.50;99.90;;;;;;5055568;28;20127;-92
2022/11/12 02:56:00;;;;;;;12.25;8.48;;;6.50;99.90;;;;;;5055599;28;20181;-91
2022/11/12 02:58:27;;;;;;;12.63;8.27;;;6.50;99.90;;;;;;5067290;28;20040;-90
2022/11/12 03:00:53;;;;;;;12.30;8.43;;;6.60;99.90;;;;;;5058040;28;20155;-90
2022/11/12 03:03:18;;;;;;;13.57;7.88;;;6.60;99.90;;;;;;5062227;28;20116;-91
2022/11/12 03:05:52;;;;;;;11.60;8.35;;;6.70;99.90;;;;;;5059684;28;20051;-90
2022/11/12 03:08:18;;;;;;;12.73;8.18;;;6.70;99.90;;;;;;5063595;28;20079;-91
2022/11/12 03:10:43;;;;;;;12.55;8.52;;;6.70;99.90;;;;;;5064247;28;20084;-90
2022/11/12 03:13:10;;;;;;;13.55;9.13;;;6.80;99.90;;;;;;5077296;28;20082;-91
2022/11/12 03:15:36;;;;;;;11.20;8.05;;;6.80;99.90;;;;;;5060362;28;20651;-90
2022/11/12 03:18:02;;;;;;;14.52;8.50;;;6.80;99.90;;;;;;5069627;28;20080;-91
2022/11/12 03:20:28;;;;;;;12.32;7.68;;;6.70;99.90;;;;;;5068598;28;20044;-90
2022/11/12 03:23:04;;;;;;;11.18;6.90;;;6.70;99.90;;;;;;5060413;28;20083;-91
2022/11/12 03:25:30;;;;;;;13.57;7.63;;;6.70;99.90;;;;;;5055920;28;20083;-91
2022/11/12 03:28:00;;;;;;;13.48;8.07;;;6.70;99.90;;;;;;5073340;28;20048;-90
2022/11/12 03:30:28;;;;;;;13.05;7.80;;;6.60;99.90;;;;;;5097686;27;20056;-91
2022/11/12 03:32:54;;;;;;;13.00;7.82;;;6.50;99.90;;;;;;5061821;28;20124;-90
2022/11/12 03:35:21;;;;;;;11.70;7.10;;;6.50;99.90;;;;;;5051031;28;20091;-91
2022/11/12 03:37:47;;;;;;;13.10;7.70;;;6.40;99.90;;;;;;5051247;28;20045;-91
2022/11/12 03:40:12;;;;;;;10.13;7.40;;;6.30;99.90;;;;;;5059654;28;20044;-91
2022/11/12 03:42:43;;;;;;;10.63;7.45;;;6.30;99.90;;;;;;5062698;28;20047;-86
2022/11/12 03:45:09;;;;;;;12.90;7.63;;;6.30;99.90;;;;;;5063388;28;20041;-90
2022/11/12 03:47:34;;;;;;;10.55;7.40;;;6.30;99.90;;;;;;5055132;28;20047;-91
2022/11/12 03:50:00;;;;;;;11.55;7.28;;;6.20;99.90;;;;;;5057407;28;20040;-91
2022/11/12 03:52:26;;;;;;;11.27;7.03;;;6.20;99.90;;;;;;5059640;28;20053;-90
2022/11/12 03:54:51;;;;;;;10.40;7.75;;;6.20;99.90;;;;;;5051944;28;20068;-90
2022/11/12 03:57:17;;;;;;;11.32;7.03;;;6.20;99.90;;;;;;5060339;28;20048;-91
2022/11/12 03:59:43;;;;;;;10.43;6.32;;;6.10;99.90;;;;;;5065610;28;20044;-91
2022/11/12 04:02:13;;;;;;;8.85;6.72;;;6.10;99.90;;;;;;5066838;28;20048;-90
2022/11/12 04:10:07;;;;;;;8.63;6.20;;;6.00;99.90;;;;;;5054666;28;20052;-90
2022/11/12 04:15:17;;;;;;;7.90;5.20;;;5.90;99.90;;;;;;5059665;28;20075;-90
2022/11/12 04:23:32;;;;;;;14.85;7.63;;;5.90;99.90;;;;;;5034912;28;20107;-91
2022/11/12 04:30:14;;;;;;;12.27;7.13;;;5.90;99.90;;;;;;5041998;28;20041;-92
2022/11/12 04:31:27;;;;;;;10.70;7.15;;;5.90;99.90;;;;;;5056165;28;20056;-90
2022/11/12 04:33:53;;;;;;;11.25;7.28;;;5.80;99.90;;;;;;5053422;28;20041;-90
2022/11/12 04:36:18;;;;;;;13.40;8.13;;;5.80;99.90;;;;;;5061654;28;20043;-91
2022/11/12 04:38:44;;;;;;;11.57;6.80;;;5.80;99.90;;;;;;5059437;28;20486;-91
2022/11/12 04:46:38;;;;;;;11.02;7.40;;;5.70;99.90;;;;;;5046079;28;20041;-90
2022/11/12 04:49:04;;;;;;;10.57;7.35;;;5.60;99.90;;;;;;5052175;28;20108;-90
2022/11/12 04:54:13;;;;;;;11.10;7.43;;;5.50;99.90;;;;;;5048031;28;20057;-90
2022/11/12 04:56:39;;;;;;;12.85;7.93;;;5.50;99.90;;;;;;5063971;28;20050;-90
2022/11/12 04:59:04;;;;;;;9.63;6.55;;;5.50;99.90;;;;;;5054907;28;20461;-90
2022/11/12 05:01:30;;;;;;;9.55;7.05;;;5.50;99.90;;;;;;5074527;28;20043;-91
2022/11/12 05:03:56;;;;;;;11.88;7.03;;;5.50;99.90;;;;;;5059204;28;20690;-91
2022/11/12 05:09:05;;;;;;;10.98;7.00;;;5.40;99.90;;;;;;5054417;28;20072;-91
2022/11/12 05:11:31;;;;;;;11.70;7.45;;;5.40;99.90;;;;;;5070514;28;20127;-90
2022/11/12 05:13:57;;;;;;;24.25;8.20;;;5.50;99.90;;;;;;5073294;28;20041;-91
2022/11/12 05:16:22;;;;;;;8.60;5.97;;;5.50;99.90;;;;;;5060806;28;20048;-91
2022/11/12 05:18:48;;;;;;;10.50;7.28;;;5.40;99.90;;;;;;5058230;28;20082;-91
2022/11/12 05:23:58;;;;;;;9.35;6.55;;;5.30;99.90;;;;;;5064253;28;20152;-90
2022/11/12 05:26:23;;;;;;;10.25;6.65;;;5.30;99.90;;;;;;5064696;28;20183;-91
2022/11/12 05:28:49;;;;;;;9.65;6.85;;;5.20;99.90;;;;;;5065244;28;20043;-91
2022/11/12 05:31:15;;;;;;;8.85;6.78;;;5.30;99.90;;;;;;5059095;28;20148;-90
2022/11/12 05:33:40;;;;;;;9.23;6.50;;;5.20;99.90;;;;;;5050582;28;20048;-91
2022/11/12 05:36:06;;;;;;;11.98;7.45;;;5.20;99.90;;;;;;5058385;28;20052;-91
2022/11/12 05:38:32;;;;;;;10.15;7.68;;;5.20;99.90;;;;;;5060424;28;20124;-91
2022/11/12 05:40:57;;;;;;;9.70;7.20;;;5.20;99.90;;;;;;5062929;28;20162;-89
2022/11/12 05:43:23;;;;;;;10.43;7.60;;;5.10;99.90;;;;;;5062921;28;20122;-90
2022/11/12 05:45:48;;;;;;;12.05;7.95;;;5.20;99.90;;;;;;5053359;28;20040;-90
2022/11/12 05:48:14;;;;;;;14.23;8.70;;;5.20;99.90;;;;;;5062058;28;20249;-90
2022/11/12 05:50:39;;;;;;;13.23;8.13;;;5.20;99.90;;;;;;5054734;28;20055;-90
2022/11/12 05:53:05;;;;;;;11.52;7.60;;;5.30;99.90;;;;;;5060891;28;20037;-91
2022/11/12 05:55:31;;;;;;;10.32;7.65;;;5.30;99.90;;;;;;5054632;28;20440;-90
2022/11/12 05:57:56;;;;;;;11.68;8.30;;;5.30;99.90;;;;;;5058283;28;20051;-90
2022/11/12 06:00:22;;;;;;;11.73;8.30;;;5.20;99.90;;;;;;5044926;28;20385;-90
2022/11/12 06:02:47;;;;;;;12.65;7.90;;;5.20;99.90;;;;;;5061757;28;20123;-90
2022/11/12 06:05:13;;;;;;;13.77;8.80;;;5.30;99.90;;;;;;5058836;28;20380;-90
2022/11/12 06:07:39;;;;;;;9.85;7.93;;;5.30;99.90;;;;;;5061637;28;20040;-90
2022/11/12 06:10:05;;;;;;;12.23;7.90;;;5.20;99.90;;;;;;5065216;28;20056;-90
2022/11/12 06:12:31;;;;;;;14.95;7.82;;;5.20;99.90;;;;;;5061113;28;20079;-89
2022/11/12 06:14:57;;;;;;;9.80;6.53;;;5.10;99.90;;;;;;5052399;28;20080;-90
2022/11/12 06:17:22;;;;;;;14.82;7.82;;;5.00;99.90;;;;;;5068096;28;20055;-90
2022/11/12 06:19:48;;;;;;;12.07;8.15;;;5.00;99.90;;;;;;5047220;28;20625;-89
2022/11/12 06:22:13;;;;;;;10.52;8.30;;;5.00;99.90;;;;;;5053331;28;20056;-90
2022/11/12 06:24:39;;;;;;;11.50;8.70;;;5.00;99.90;;;;;;5056372;28;20044;-90
2022/11/12 06:27:04;;;;;;;13.05;9.80;;;4.90;99.90;;;;;;5055725;28;20548;-88
2022/11/12 06:29:30;;;;;;;15.95;10.13;;;4.90;99.90;;;;;;5077954;28;20049;-83
2022/11/12 06:31:56;;;;;;;14.27;10.40;;;4.90;99.90;;;;;;5053328;28;20132;-91
2022/11/12 06:34:21;;;;;;;18.25;12.55;;;5.00;99.90;;;;;;5067876;28;20045;-91
2022/11/12 06:36:48;;;;;;;16.00;11.00;;;5.00;99.90;;;;;;5049852;28;20110;-90
2022/11/12 06:39:13;;;;;;;13.73;9.93;;;4.90;99.90;;;;;;5053746;28;20045;-90
2022/11/12 06:41:39;;;;;;;16.73;11.60;;;4.80;99.90;;;;;;5051018;28;20044;-90
2022/11/12 06:44:05;;;;;;;15.55;11.98;;;4.80;99.90;;;;;;5061121;28;20126;-90
2022/11/12 06:46:30;;;;;;;15.20;11.52;;;4.80;99.90;;;;;;5071227;28;20043;-90
2022/11/12 06:48:56;;;;;;;17.10;12.13;;;4.80;99.90;;;;;;5071369;28;20057;-91
2022/11/12 06:51:22;;;;;;;14.88;11.60;;;4.80;99.90;;;;;;5063284;28;20131;-90
2022/11/12 06:53:48;;;;;;;16.15;11.10;;;4.80;99.90;;;;;;5060279;28;20037;-88
2022/11/12 06:56:14;;;;;;;14.80;10.55;;;4.70;99.90;;;;;;5058309;28;20064;-90
2022/11/12 06:58:40;;;;;;;14.23;10.27;;;4.60;99.90;;;;;;5056533;28;20044;-86
2022/11/12 07:01:14;;;;;;;14.50;10.55;;;4.60;99.90;;;;;;5051068;28;20040;-85
2022/11/12 07:03:41;;;;;;;16.48;11.77;;;4.60;99.90;;;;;;5060281;28;20124;-86
2022/11/12 07:06:10;;;;;;;14.80;10.52;;;4.60;99.90;;;;;;5068945;28;20066;-86
2022/11/12 07:08:37;;;;;;;15.45;12.13;;;4.50;99.90;;;;;;5066245;28;20392;-86
2022/11/12 07:11:04;;;;;;;16.23;10.98;;;4.50;99.90;;;;;;5077826;28;20520;-86
2022/11/12 07:13:31;;;;;;;13.77;11.05;;;4.50;99.90;;;;;;5056799;28;20110;-82
2022/11/12 07:15:58;;;;;;;20.77;14.35;;;4.50;99.90;;;;;;5060333;28;20508;-81
2022/11/12 07:18:25;;;;;;;19.23;13.75;;;4.60;99.90;;;;;;5069579;28;20043;-82
2022/11/12 07:20:50;;;;;;;19.70;14.02;;;4.60;99.90;;;;;;5062924;28;20041;-81
2022/11/12 07:23:16;;;;;;;15.18;11.70;;;4.70;99.90;;;;;;5061724;28;20048;-81
2022/11/12 07:25:42;;;;;;;17.15;12.88;;;4.70;99.90;;;;;;5057185;28;20096;-81
2022/11/12 07:28:08;;;;;;;25.92;17.55;;;4.60;99.90;;;;;;5070910;28;20127;-81
2022/11/12 07:30:34;;;;;;;22.13;17.15;;;4.60;99.90;;;;;;5064600;28;20139;-82
2022/11/12 07:33:00;;;;;;;18.50;14.57;;;4.70;99.90;;;;;;5078332;28;20096;-81
2022/11/12 07:35:25;;;;;;;19.20;13.20;;;4.70;99.90;;;;;;5050652;28;20403;-81
2022/11/12 07:37:52;;;;;;;15.30;12.13;;;4.70;99.90;;;;;;5052526;28;20546;-82
2022/11/12 07:40:18;;;;;;;15.50;11.38;;;4.60;99.90;;;;;;5062969;28;20048;-81
2022/11/12 07:42:44;;;;;;;17.20;12.07;;;4.60;99.90;;;;;;5054804;28;20054;-81
2022/11/12 07:45:10;;;;;;;16.70;12.13;;;4.70;99.90;;;;;;5059433;28;20503;-82
2022/11/12 07:47:35;;;;;;;15.13;11.88;;;4.70;99.90;;;;;;5054233;28;20142;-81
2022/11/12 07:50:02;;;;;;;15.95;11.88;;;4.80;99.90;;;;;;5055221;28;20045;-82
2022/11/12 07:52:27;;;;;;;15.77;11.57;;;4.90;99.90;;;;;;5057567;28;20400;-82
2022/11/12 07:54:53;;;;;;;15.13;11.80;;;4.90;99.90;;;;;;5053314;28;20041;-81
2022/11/12 07:57:19;;;;;;;16.60;11.90;;;5.00;99.90;;;;;;5054213;28;20053;-81
2022/11/12 07:59:45;;;;;;;15.35;10.98;;;5.00;99.90;;;;;;5061705;28;20845;-81
2022/11/12 08:02:11;;;;;;;16.60;11.38;;;5.10;99.90;;;;;;5051153;28;20045;-81
2022/11/12 08:04:37;;;;;;;18.38;12.40;;;5.10;99.90;;;;;;5055364;28;20091;-81
2022/11/12 08:07:03;;;;;;;14.05;11.32;;;5.30;99.90;;;;;;5069550;28;20036;-81
2022/11/12 08:09:28;;;;;;;15.68;11.45;;;5.40;99.90;;;;;;5056628;28;20129;-81
2022/11/12 08:11:54;;;;;;;14.57;10.85;;;5.50;99.90;;;;;;5064162;28;20513;-81
2022/11/12 08:14:21;;;;;;;15.10;11.50;;;5.60;99.90;;;;;;5061666;28;20044;-81
2022/11/12 08:16:48;;;;;;;14.32;11.38;;;5.70;99.90;;;;;;5061013;28;20611;-78
2022/11/12 08:19:14;;;;;;;16.27;11.20;;;5.80;99.90;;;;;;5060508;28;20222;-81
2022/11/12 08:21:39;;;;;;;14.13;10.98;;;5.90;99.90;;;;;;5055508;28;20456;-82
2022/11/12 08:24:05;;;;;;;17.27;12.52;;;6.00;99.90;;;;;;5059360;28;20064;-79
2022/11/12 08:26:31;;;;;;;15.35;12.25;;;6.10;99.90;;;;;;5069880;28;20044;-79
2022/11/12 08:28:57;;;;;;;18.48;12.50;;;6.10;99.90;;;;;;5063961;28;20045;-85
2022/11/12 08:31:22;;;;;;;16.17;12.15;;;6.20;99.90;;;;;;5067576;28;20671;-86
2022/11/12 08:33:48;;;;;;;15.45;11.52;;;6.30;99.90;;;;;;5076820;28;20044;-86
2022/11/12 08:36:16;;;;;;;18.40;12.60;;;6.30;99.90;;;;;;5062157;28;20881;-82
2022/11/12 08:38:42;;;;;;;18.23;12.90;;;6.40;99.90;;;;;;5058980;28;20041;-83
2022/11/12 08:41:10;;;;;;;18.75;13.50;;;6.50;99.90;;;;;;5056026;28;20059;-80
2022/11/12 08:43:37;;;;;;;16.95;13.55;;;6.50;99.90;;;;;;5065799;28;20447;-81
2022/11/12 08:46:04;;;;;;;16.92;13.63;;;6.60;99.90;;;;;;5087086;28;20048;-83
2022/11/12 08:48:32;;;;;;;17.05;13.50;;;6.70;99.90;;;;;;5082654;28;20400;-82
2022/11/12 08:51:01;;;;;;;17.42;13.70;;;6.70;99.90;;;;;;5055355;28;20052;-84
2022/11/12 08:53:27;;;;;;;18.10;15.23;;;6.70;99.90;;;;;;5072305;28;20466;-83
2022/11/12 08:55:54;;;;;;;18.05;14.40;;;6.80;99.90;;;;;;5062277;28;20046;-79
2022/11/12 08:58:20;;;;;;;17.23;13.38;;;6.90;99.90;;;;;;5073494;28;20037;-79
2022/11/12 09:00:46;;;;;;;17.13;13.52;;;6.90;99.90;;;;;;5067093;28;20092;-83
2022/11/12 09:03:17;;;;;;;18.83;14.25;;;7.00;99.90;;;;;;5078087;28;20439;-82
2022/11/12 09:05:43;;;;;;;19.38;14.18;;;7.00;99.90;;;;;;5067963;28;20377;-83
2022/11/12 09:08:11;;;;;;;18.40;15.00;;;7.00;99.90;;;;;;5068589;28;20047;-83
2022/11/12 09:10:38;;;;;;;17.77;14.40;;;7.10;99.90;;;;;;5068419;28;20041;-82
2022/11/12 09:13:03;;;;;;;20.20;14.73;;;7.10;99.90;;;;;;5071553;28;20044;-83
2022/11/12 09:15:29;;;;;;;20.15;14.82;;;7.20;99.90;;;;;;5065984;28;20608;-88
2022/11/12 09:18:00;;;;;;;21.02;15.35;;;7.20;99.90;;;;;;5068847;28;20050;-82
2022/11/12 09:20:27;;;;;;;17.27;14.43;;;7.20;99.90;;;;;;5069828;28;20079;-87
2022/11/12 09:22:57;;;;;;;22.73;16.27;;;7.30;99.90;;;;;;5064291;28;20028;-83
2022/11/12 09:25:22;;;;;;;21.08;16.08;;;7.40;99.90;;;;;;5054543;28;20090;-87
2022/11/12 09:27:48;;;;;;;18.20;14.85;;;7.40;99.90;;;;;;5061530;28;20519;-82
2022/11/12 09:30:14;;;;;;;19.35;15.60;;;7.40;99.90;;;;;;5064306;28;20048;-86
2022/11/12 09:32:40;;;;;;;21.55;16.42;;;7.50;99.90;;;;;;5054875;28;20503;-87
2022/11/12 09:35:06;;;;;;;21.42;15.65;;;7.50;99.90;;;;;;5070762;28;20124;-84
2022/11/12 09:37:32;;;;;;;18.60;15.88;;;7.50;99.90;;;;;;5074972;28;20047;-82
2022/11/12 09:39:57;;;;;;;21.38;16.13;;;7.60;99.90;;;;;;5064616;28;20052;-81
2022/11/12 09:42:23;;;;;;;18.83;15.50;;;7.70;99.90;;;;;;5074182;28;20055;-81
2022/11/12 09:44:58;;;;;;;22.52;16.13;;;7.70;99.90;;;;;;5087049;28;20539;-82
2022/11/12 09:47:32;;;;;;;21.35;16.58;;;7.80;99.90;;;;;;5086595;28;20514;-81
2022/11/12 09:50:15;;;;;;;19.20;16.27;;;7.80;99.90;;;;;;5087763;28;20050;-82
2022/11/12 09:54:41;;;;;;;20.77;15.90;;;8.00;99.90;;;;;;5113539;27;20399;-89
2022/11/12 09:57:11;;;;;;;22.48;17.02;;;8.00;99.90;;;;;;5103351;28;20044;-86
2022/11/12 09:59:40;;;;;;;23.02;16.77;;;8.10;99.90;;;;;;5134086;27;20048;-84
2022/11/12 10:02:24;;;;;;;19.80;17.63;;;8.20;99.90;;;;;;5098188;28;20052;-86
2022/11/12 10:05:11;;;;;;;18.95;16.55;;;8.30;99.90;;;;;;5094405;28;20048;-86
2022/11/12 10:07:42;;;;;;;24.50;16.67;;;8.30;99.90;;;;;;5093979;28;20031;-86
2022/11/12 10:10:19;;;;;;;20.67;16.63;;;8.40;99.90;;;;;;5093683;28;20051;-90
2022/11/12 10:13:27;;;;;;;19.13;17.08;;;8.40;99.90;;;;;;5092247;28;20433;-91
2022/11/12 10:19:09;;;;;;;;;;;8.60;99.90;;;;;;5094539;28;20375;-83
2022/11/12 10:21:45;;;;;;;21.15;16.23;;;8.60;99.90;;;;;;5096656;28;19977;-86
2022/11/12 10:24:11;;;;;;;19.67;16.92;;;8.70;99.90;;;;;;5103795;28;20148;-81
2022/11/12 10:26:39;;;;;;;22.27;16.52;;;8.80;99.90;;;;;;5097481;28;20155;-79
2022/11/12 10:29:25;;;;;;;21.08;17.08;;;8.80;99.90;;;;;;5101303;28;20108;-80
2022/11/12 10:31:51;;;;;;;18.20;15.68;;;8.90;99.90;;;;;;5094425;28;20048;-77
2022/11/12 10:34:22;;;;;;;20.13;16.38;;;8.90;99.90;;;;;;5106462;28;20044;-79
2022/11/12 10:36:56;;;;;;;21.25;17.17;;;8.90;99.90;;;;;;5130537;27;20039;-78
2022/11/12 10:39:40;;;;;;;18.38;16.25;;;9.00;99.90;;;;;;5102946;28;20043;-80
2022/11/12 10:42:21;;;;;;;19.77;16.27;;;9.00;99.90;;;;;;5098184;28;20088;-90
2022/11/12 10:44:47;;;;;;;18.83;16.58;;;9.10;99.90;;;;;;5097030;28;20133;-86
2022/11/12 10:47:21;;;;;;;18.08;15.73;;;9.10;99.90;;;;;;5090176;28;20062;-89
2022/11/12 10:50:16;;;;;;;21.23;17.30;;;9.30;99.90;;;;;;5094587;28;20052;-89
2022/11/12 10:53:03;;;;;;;18.77;16.77;;;9.40;99.90;;;;;;5087121;28;20036;-86
2022/11/12 10:55:34;;;;;;;22.15;16.60;;;9.50;99.90;;;;;;5096538;28;20040;-86
2022/11/12 10:58:09;;;;;;;20.13;15.93;;;9.60;99.90;;;;;;5094822;28;20398;-80
2022/11/12 11:00:56;;;;;;;17.60;15.70;;;9.70;99.90;;;;;;5093183;28;20089;-90
2022/11/12 11:03:24;;;;;;;18.35;15.52;;;9.80;99.90;;;;;;5087516;28;20080;-90
2022/11/12 11:06:00;;;;;;;20.55;15.90;;;9.80;99.90;;;;;;5083619;28;20039;-76
2022/11/12 11:08:36;;;;;;;17.75;15.95;;;10.00;99.90;;;;;;5083594;28;20051;-94
2022/11/12 11:11:28;;;;;;;18.02;14.73;;;10.00;99.90;;;;;;5086116;28;20040;-92
2022/11/12 11:13:56;;;;;;;16.77;14.98;;;10.10;99.90;;;;;;5091002;28;20050;-92
2022/11/12 11:16:24;;;;;;;16.90;14.50;;;10.20;99.90;;;;;;5123625;27;20040;-93
2022/11/12 11:19:05;;;;;;;17.77;15.10;;;10.20;99.90;;;;;;5089105;28;20056;-92
2022/11/12 11:21:49;;;;;;;17.42;14.73;;;10.30;99.90;;;;;;5091618;28;20048;-91
2022/11/12 11:24:20;;;;;;;17.33;15.40;;;10.30;99.90;;;;;;5090965;28;20040;-92
2022/11/12 11:26:52;;;;;;;17.02;15.32;;;10.30;99.90;;;;;;5090638;28;20056;-94
2022/11/12 11:29:42;;;;;;;19.95;14.98;;;10.40;99.90;;;;;;5090383;28;20578;-91
2022/11/12 11:32:32;;;;;;;15.25;13.52;;;10.50;99.90;;;;;;5088810;28;20048;-93
2022/11/12 11:35:34;;;;;;;17.45;13.57;;;10.70;99.90;;;;;;5121789;27;20410;-92
2022/11/12 11:38:21;;;;;;;15.60;13.77;;;10.80;99.90;;;;;;5090227;28;20212;-92
2022/11/12 11:40:46;;;;;;;15.65;13.07;;;11.00;99.90;;;;;;5089472;28;20728;-92
2022/11/12 11:43:30;;;;;;;14.32;12.77;;;11.10;99.90;;;;;;5089800;28;20073;-92
2022/11/12 11:46:12;;;;;;;16.48;12.82;;;11.20;99.90;;;;;;5122072;27;20058;-92
2022/11/12 11:48:57;;;;;;;15.65;12.38;;;11.30;99.90;;;;;;5089201;28;20044;-93
2022/11/12 11:51:47;;;;;;;16.13;12.88;;;11.30;99.90;;;;;;5088585;28;20040;-91
2022/11/12 11:54:47;;;;;;;13.32;11.85;;;11.40;99.90;;;;;;5086913;28;20087;-92
2022/11/12 11:57:21;;;;;;;12.95;11.05;;;11.50;99.90;;;;;;5090220;28;20076;-91
2022/11/12 12:00:14;;;;;;;12.75;10.73;;;11.60;99.90;;;;;;5123262;27;20044;-93
2022/11/12 12:03:14;;;;;;;12.70;10.25;;;11.60;99.90;;;;;;5086420;28;20048;-93
2022/11/12 12:05:45;;;;;;;15.65;12.02;;;11.70;99.90;;;;;;5089974;28;20127;-91
2022/11/12 12:08:32;;;;;;;13.30;11.50;;;11.70;99.90;;;;;;5082358;28;20037;-93
2022/11/12 12:11:06;;;;;;;;;;;11.80;99.90;;;;;;5103217;28;20079;-94
2022/11/12 12:14:03;;;;;;;14.23;11.05;;;11.80;99.90;;;;;;5075655;28;19924;-93
2022/11/12 12:16:55;;;;;;;13.93;10.88;;;11.90;99.90;;;;;;5087563;28;20052;-93
2022/11/12 12:19:29;;;;;;;13.90;10.70;;;11.90;99.90;;;;;;5123440;27;20044;-94
2022/11/12 12:21:58;;;;;;;14.95;11.15;;;12.00;99.90;;;;;;5086322;28;20447;-94
2022/11/12 12:24:36;;;;;;;14.10;10.85;;;12.00;99.90;;;;;;5122532;27;20052;-93
2022/11/12 12:27:14;;;;;;;11.90;10.32;;;12.00;99.90;;;;;;5122323;27;20048;-93
2022/11/12 12:29:49;;;;;;;14.07;10.60;;;12.10;99.90;;;;;;5088784;28;20040;-92
2022/11/12 12:32:37;;;;;;;13.75;10.32;;;12.10;99.90;;;;;;5088813;28;20074;-93
2022/11/12 12:35:24;;;;;;;15.10;10.70;;;12.10;99.90;;;;;;5084919;28;20039;-89
2022/11/12 12:38:10;;;;;;;12.02;10.77;;;12.20;99.90;;;;;;5087644;28;20117;-82
2022/11/12 12:41:03;;;;;;;12.25;10.25;;;12.10;99.90;;;;;;5084544;28;20052;-85
2022/11/12 12:43:38;;;;;;;12.68;10.90;;;12.20;99.90;;;;;;5089520;28;20040;-81
2022/11/12 12:46:05;;;;;;;13.90;10.68;;;12.20;99.90;;;;;;5121782;27;20075;-81
2022/11/12 12:48:37;;;;;;;;;;;12.30;99.90;;;;;;5085035;28;20047;-84
2022/11/12 12:51:03;;;;;;;13.35;10.68;;;12.20;99.90;;;;;;5109807;27;19935;-84
2022/11/12 12:53:28;;;;;;;12.25;10.10;;;12.20;99.90;;;;;;5083734;28;20056;-88
2022/11/12 12:56:18;;;;;;;11.50;10.18;;;12.20;99.90;;;;;;5078191;28;20571;-86
2022/11/12 12:58:49;;;;;;;12.25;10.38;;;12.20;99.90;;;;;;5057998;28;20064;-87
2022/11/12 13:01:21;;;;;;;13.35;11.07;;;12.20;99.90;;;;;;5080303;28;20040;-82
2022/11/12 13:04:03;;;;;;;14.18;10.25;;;12.20;99.90;;;;;;5082868;28;20040;-85
2022/11/12 13:06:50;;;;;;;13.40;10.13;;;12.20;99.90;;;;;;5077646;28;20061;-82
2022/11/12 13:09:16;;;;;;;17.33;11.68;;;12.20;99.90;;;;;;5083904;28;20613;-81
2022/11/12 13:14:35;;;;;;;12.93;10.82;;;12.30;99.90;;;;;;5105787;27;20064;-82
2022/11/12 13:17:09;;;;;;;15.00;11.00;;;12.30;99.90;;;;;;5085996;28;20040;-82
2022/11/12 13:19:53;;;;;;;14.20;11.27;;;12.30;99.90;;;;;;5077398;28;20665;-80
2022/11/12 13:22:19;;;;;;;14.48;11.40;;;12.40;99.90;;;;;;5117076;27;20032;-81
2022/11/12 13:25:06;;;;;;;14.13;10.98;;;12.40;99.90;;;;;;5120175;27;20046;-81
2022/11/12 13:27:44;;;;;;;13.20;11.60;;;12.50;99.90;;;;;;5120891;27;20047;-81
2022/11/12 13:30:12;;;;;;;12.38;10.63;;;12.40;99.90;;;;;;5086544;28;20090;-81
2022/11/12 13:32:41;;;;;;;13.27;11.88;;;12.40;99.90;;;;;;5086902;28;20513;-81